createdAt,value
2023-01-09T00:02:31.186Z,11.65
2023-01-09T00:05:34.159Z,11.85
2023-01-09T00:08:36.680Z,14.23
2023-01-09T00:11:39.570Z,10.60
2023-01-09T00:14:42.238Z,10.30
2023-01-09T00:17:47.955Z,11.27
2023-01-09T00:20:50.657Z,14.65
2023-01-09T00:23:54.476Z,12.43
2023-01-09T00:26:57.011Z,10.48
2023-01-09T00:30:01.148Z,11.52
2023-01-09T00:33:03.779Z,10.90
2023-01-09T00:36:07.060Z,10.95
2023-01-09T00:39:09.693Z,11.87
2023-01-09T00:42:16.510Z,12.37
2023-01-09T00:45:28.663Z,12.18
2023-01-09T00:48:32.551Z,10.85
2023-01-09T00:51:35.111Z,12.65
2023-01-09T00:54:38.687Z,11.73
2023-01-09T00:57:41.453Z,10.05
2023-01-09T01:00:44.636Z,10.82
2023-01-09T01:03:47.487Z,9.65
2023-01-09T01:07:09.343Z,12.65
2023-01-09T01:10:21.160Z,9.97
2023-01-09T01:13:23.976Z,9.82
2023-01-09T01:16:26.595Z,11.18
2023-01-09T01:19:29.812Z,11.12
2023-01-09T01:22:32.407Z,11.57
2023-01-09T01:25:39.696Z,10.47
2023-01-09T01:28:42.885Z,12.63
2023-01-09T01:31:45.831Z,12.00
2023-01-09T01:34:48.377Z,10.65
2023-01-09T01:37:51.290Z,11.95
2023-01-09T01:40:54.705Z,13.43
2023-01-09T01:44:06.771Z,11.82
2023-01-09T01:47:09.467Z,14.52
2023-01-09T01:50:31.977Z,12.13
2023-01-09T01:53:42.150Z,10.85
2023-01-09T01:56:53.685Z,11.83
2023-01-09T01:59:58.733Z,12.30
2023-01-09T02:03:02.360Z,11.35
2023-01-09T02:06:06.392Z,12.57
2023-01-09T02:09:09.394Z,14.15
2023-01-09T02:12:25.024Z,12.00
2023-01-09T02:15:28.412Z,12.37
2023-01-09T02:18:35.152Z,14.52
2023-01-09T02:21:58.925Z,12.05
2023-01-09T02:25:27.550Z,10.35
2023-01-09T02:28:54.678Z,11.10
2023-01-09T02:32:04.243Z,11.05
2023-01-09T02:35:35.459Z,10.52
2023-01-09T02:39:15.993Z,13.05
2023-01-09T02:42:23.784Z,13.02
2023-01-09T02:45:27.205Z,11.43
2023-01-09T02:48:30.812Z,13.05
2023-01-09T02:51:53.449Z,12.05
2023-01-09T02:55:24.580Z,14.98
2023-01-09T02:58:30.597Z,12.43
2023-01-09T03:01:46.479Z,12.73
2023-01-09T03:04:59.723Z,12.45
2023-01-09T03:08:05.182Z,13.50
2023-01-09T03:11:09.083Z,12.63
2023-01-09T03:14:15.980Z,12.70
2023-01-09T03:17:40.415Z,14.73
2023-01-09T03:20:44.181Z,11.32
2023-01-09T03:23:50.032Z,13.02
2023-01-09T03:26:54.424Z,14.98
2023-01-09T03:29:57.986Z,13.30
2023-01-09T03:33:00.608Z,11.40
2023-01-09T03:36:04.322Z,11.80
2023-01-09T03:39:07.167Z,14.25
2023-01-09T03:42:10.199Z,11.05
2023-01-09T03:45:13.354Z,12.37
2023-01-09T03:48:16.525Z,12.67
2023-01-09T03:51:19.055Z,13.30
2023-01-09T03:54:21.876Z,11.40
2023-01-09T03:57:24.495Z,14.25
2023-01-09T04:00:27.828Z,11.38
2023-01-09T04:03:31.082Z,12.47
2023-01-09T04:06:33.683Z,13.48
2023-01-09T04:09:36.769Z,12.27
2023-01-09T04:12:39.389Z,15.70
2023-01-09T04:15:42.517Z,14.30
2023-01-09T04:18:45.266Z,14.03
2023-01-09T04:21:48.490Z,13.98
2023-01-09T04:24:51.099Z,12.35
2023-01-09T04:27:54.226Z,13.43
2023-01-09T04:30:56.991Z,14.18
2023-01-09T04:33:59.957Z,12.97
2023-01-09T04:37:02.540Z,11.88
2023-01-09T04:40:10.257Z,13.30
2023-01-09T04:43:12.939Z,12.57
2023-01-09T04:46:15.801Z,12.80
2023-01-09T04:49:18.743Z,14.40
2023-01-09T04:52:21.526Z,14.93
2023-01-09T04:55:24.210Z,14.82
2023-01-09T04:58:27.112Z,13.18
2023-01-09T05:01:29.944Z,16.35
2023-01-09T05:04:32.953Z,16.70
2023-01-09T05:07:35.617Z,15.57
2023-01-09T05:10:38.450Z,17.42
2023-01-09T05:13:41.127Z,21.48
2023-01-09T05:16:44.075Z,19.65
2023-01-09T05:19:46.652Z,20.43
2023-01-09T05:22:49.677Z,23.15
2023-01-09T05:25:52.501Z,21.05
2023-01-09T05:28:58.636Z,22.30
2023-01-09T05:32:01.569Z,21.85
2023-01-09T05:35:04.735Z,19.53
2023-01-09T05:38:07.428Z,24.70
2023-01-09T05:41:10.614Z,22.42
2023-01-09T05:44:14.964Z,21.00
2023-01-09T05:47:18.150Z,22.48
2023-01-09T05:50:20.809Z,23.33
2023-01-09T05:53:23.689Z,23.33
2023-01-09T05:56:26.295Z,26.12
2023-01-09T05:59:29.148Z,23.20
2023-01-09T06:02:31.980Z,22.55
2023-01-09T06:05:34.935Z,23.47
2023-01-09T06:08:37.528Z,18.42
2023-01-09T06:11:40.594Z,20.23
2023-01-09T06:14:43.372Z,22.13
2023-01-09T06:17:46.593Z,20.85
2023-01-09T06:20:49.556Z,25.10
2023-01-09T06:23:52.454Z,22.85
2023-01-09T06:26:55.055Z,20.95
2023-01-09T06:29:58.196Z,23.92
2023-01-09T06:33:00.966Z,23.83
2023-01-09T06:36:03.966Z,20.20
2023-01-09T06:39:06.498Z,22.75
2023-01-09T06:42:09.366Z,22.23
2023-01-09T06:45:13.182Z,23.98
2023-01-09T06:48:16.373Z,20.65
2023-01-09T06:51:18.853Z,21.23
2023-01-09T06:54:22.771Z,22.25
2023-01-09T06:57:25.327Z,21.67
2023-01-09T07:00:29.676Z,24.90
2023-01-09T07:03:33.794Z,22.58
2023-01-09T07:06:38.087Z,22.60
2023-01-09T07:09:40.649Z,20.88
2023-01-09T07:12:43.548Z,20.33
2023-01-09T07:15:46.210Z,21.17
2023-01-09T07:18:49.306Z,21.08
2023-01-09T07:21:52.279Z,19.73
2023-01-09T07:24:55.794Z,21.02
2023-01-09T07:27:58.281Z,22.85
2023-01-09T07:31:04.834Z,20.60
2023-01-09T07:34:07.720Z,21.77
2023-01-09T07:37:10.683Z,24.70
2023-01-09T07:40:13.734Z,17.20
2023-01-09T07:43:16.766Z,19.20
2023-01-09T07:46:19.375Z,19.20
2023-01-09T07:49:22.529Z,20.20
2023-01-09T07:52:25.364Z,20.77
2023-01-09T07:55:28.355Z,19.90
2023-01-09T07:58:31.509Z,20.90
2023-01-09T08:01:34.708Z,22.73
2023-01-09T08:04:37.807Z,22.75
2023-01-09T08:07:41.043Z,23.90
2023-01-09T08:10:44.461Z,20.88
2023-01-09T08:13:47.029Z,21.48
2023-01-09T08:16:49.913Z,20.42
2023-01-09T08:19:53.445Z,20.45
2023-01-09T08:22:56.951Z,18.50
2023-01-09T08:25:59.742Z,23.33
2023-01-09T08:29:02.729Z,22.05
2023-01-09T08:32:05.760Z,19.52
2023-01-09T08:35:09.360Z,18.37
2023-01-09T08:38:11.965Z,25.30
2023-01-09T08:41:33.482Z,23.62
2023-01-09T08:44:54.641Z,18.27
2023-01-09T08:47:57.671Z,19.67
2023-01-09T08:51:00.317Z,20.27
2023-01-09T08:54:03.410Z,18.93
2023-01-09T08:57:06.938Z,20.70
2023-01-09T09:00:10.968Z,23.87
2023-01-09T09:03:14.656Z,18.35
2023-01-09T09:06:17.568Z,20.88
2023-01-09T09:09:20.253Z,56.97
2023-01-09T09:12:23.384Z,39.50
2023-01-09T09:15:27.832Z,28.80
2023-01-09T09:18:31.043Z,27.77
2023-01-09T09:21:33.927Z,22.60
2023-01-09T09:24:36.951Z,22.43
2023-01-09T09:27:40.056Z,22.77
2023-01-09T09:30:43.007Z,23.50
2023-01-09T09:33:45.675Z,22.37
2023-01-09T09:36:48.780Z,20.00
2023-01-09T09:39:51.473Z,23.93
2023-01-09T09:43:28.265Z,23.42
2023-01-09T09:46:52.622Z,20.45
2023-01-09T09:50:20.661Z,19.08
2023-01-09T09:53:49.703Z,21.27
2023-01-09T09:57:05.730Z,20.93
2023-01-09T10:00:16.699Z,22.30
2023-01-09T10:03:36.427Z,22.50
2023-01-09T10:06:48.938Z,26.15
2023-01-09T10:09:54.839Z,23.00
2023-01-09T10:12:59.594Z,20.73
2023-01-09T10:16:36.608Z,20.52
2023-01-09T10:20:19.859Z,20.08
2023-01-09T10:23:50.626Z,22.77
2023-01-09T10:26:54.186Z,26.98
2023-01-09T10:30:07.259Z,22.47
2023-01-09T10:33:21.161Z,20.12
2023-01-09T10:36:39.357Z,22.98
2023-01-09T10:39:53.216Z,22.60
2023-01-09T10:43:04.736Z,23.35
2023-01-09T10:46:15.450Z,25.03
2023-01-09T10:49:18.819Z,21.95
2023-01-09T10:52:26.129Z,21.50
2023-01-09T10:55:44.055Z,23.05
2023-01-09T10:58:46.990Z,23.80
2023-01-09T11:01:55.968Z,22.27
2023-01-09T11:04:58.589Z,26.52
2023-01-09T11:08:07.104Z,25.42
2023-01-09T11:11:10.771Z,26.40
2023-01-09T11:14:18.330Z,23.70
2023-01-09T11:17:25.798Z,20.53
2023-01-09T11:20:30.149Z,20.50
2023-01-09T11:23:33.203Z,21.92
2023-01-09T11:26:36.133Z,21.27
2023-01-09T11:29:39.133Z,23.33
2023-01-09T11:32:43.514Z,20.83
2023-01-09T11:36:13.208Z,24.67
2023-01-09T11:39:25.023Z,24.52
2023-01-09T11:42:48.268Z,22.83
2023-01-09T11:46:01.677Z,27.25
2023-01-09T11:49:27.934Z,23.13
2023-01-09T11:52:31.148Z,23.90
2023-01-09T11:55:41.891Z,23.40
2023-01-09T11:58:45.342Z,23.50
2023-01-09T12:02:22.510Z,24.80
2023-01-09T12:05:46.118Z,27.50
2023-01-09T12:08:55.085Z,24.17
2023-01-09T12:12:13.311Z,26.65
2023-01-09T12:15:25.974Z,24.90
2023-01-09T12:18:38.005Z,27.83
2023-01-09T12:21:58.701Z,25.73
2023-01-09T12:25:18.174Z,25.45
2023-01-09T12:28:30.211Z,28.10
2023-01-09T12:31:34.855Z,27.90
2023-01-09T12:35:00.522Z,26.75
2023-01-09T12:38:09.331Z,23.83
2023-01-09T12:41:14.701Z,25.58
2023-01-09T12:44:57.130Z,24.92
2023-01-09T12:48:17.057Z,26.77
2023-01-09T12:51:25.963Z,28.75
2023-01-09T12:54:36.842Z,24.17
2023-01-09T12:57:45.000Z,25.90
2023-01-09T13:00:49.745Z,29.58
2023-01-09T13:04:28.405Z,25.42
2023-01-09T13:07:41.650Z,30.20
2023-01-09T13:10:49.912Z,28.63
2023-01-09T13:14:00.072Z,28.67
2023-01-09T13:17:06.181Z,26.55
2023-01-09T13:20:45.666Z,27.80
2023-01-09T13:23:50.076Z,28.95
2023-01-09T13:26:56.893Z,25.37
2023-01-09T13:30:12.255Z,29.63
2023-01-09T13:33:20.312Z,27.35
2023-01-09T13:36:29.497Z,28.52
2023-01-09T13:39:35.068Z,26.55
2023-01-09T13:42:46.473Z,30.43
2023-01-09T13:45:51.347Z,31.20
2023-01-09T13:48:54.253Z,30.08
2023-01-09T13:51:59.755Z,31.62
2023-01-09T13:55:04.958Z,33.88
2023-01-09T13:58:13.709Z,35.33
2023-01-09T14:01:35.413Z,36.80
2023-01-09T14:04:43.502Z,35.45
2023-01-09T14:07:49.149Z,34.25
2023-01-09T14:10:58.095Z,35.25
2023-01-09T14:14:03.054Z,33.37
2023-01-09T14:17:38.549Z,34.78
2023-01-09T14:20:48.209Z,36.40
2023-01-09T14:24:06.653Z,32.30
2023-01-09T14:27:47.293Z,33.22
2023-01-09T14:30:52.957Z,35.37
2023-01-09T14:34:35.750Z,32.25
2023-01-09T14:37:40.955Z,36.88
2023-01-09T14:40:49.345Z,32.92
2023-01-09T14:44:01.291Z,33.63
2023-01-09T14:47:16.234Z,30.63
2023-01-09T14:50:19.237Z,32.10
2023-01-09T14:53:30.419Z,33.45
2023-01-09T14:56:34.855Z,35.90
2023-01-09T14:59:37.518Z,32.88
2023-01-09T15:02:41.457Z,30.77
2023-01-09T15:05:45.702Z,29.42
2023-01-09T15:09:00.842Z,34.60
2023-01-09T15:12:08.650Z,34.25
2023-01-09T15:15:13.543Z,33.97
2023-01-09T15:18:21.396Z,49.00
2023-01-09T15:21:26.553Z,34.00
2023-01-09T15:24:32.794Z,31.62
2023-01-09T15:27:47.625Z,33.83
2023-01-09T15:31:00.759Z,32.63
2023-01-09T15:34:04.165Z,33.93
2023-01-09T15:37:39.389Z,34.63
2023-01-09T15:40:42.280Z,33.88
2023-01-09T15:43:44.908Z,38.28
2023-01-09T15:46:50.104Z,38.85
2023-01-09T15:49:52.923Z,40.23
2023-01-09T15:52:56.688Z,35.17
2023-01-09T15:56:31.400Z,31.75
2023-01-09T15:59:34.422Z,47.75
2023-01-09T16:03:06.642Z,36.40
2023-01-09T16:06:13.383Z,39.67
2023-01-09T16:09:31.096Z,32.35
2023-01-09T16:12:34.163Z,32.08
2023-01-09T16:15:36.955Z,35.45
2023-01-09T16:18:50.300Z,27.08
2023-01-09T16:21:57.673Z,27.73
2023-01-09T16:25:17.207Z,23.80
2023-01-09T16:28:24.505Z,26.70
2023-01-09T16:31:31.166Z,26.67
2023-01-09T16:34:35.267Z,40.53
2023-01-09T16:37:38.891Z,32.57
2023-01-09T16:41:16.209Z,36.20
2023-01-09T16:44:19.406Z,87.45
2023-01-09T16:47:22.052Z,61.88
2023-01-09T16:50:25.644Z,25.25
2023-01-09T16:53:31.887Z,27.97
2023-01-09T16:56:36.150Z,33.50
2023-01-09T16:59:39.305Z,106.93
2023-01-09T17:02:42.380Z,65.32
2023-01-09T17:05:51.278Z,93.75
2023-01-09T17:08:54.210Z,133.60
2023-01-09T17:11:56.919Z,114.55
2023-01-09T17:15:01.488Z,98.03
2023-01-09T17:18:05.540Z,60.30
2023-01-09T17:21:15.995Z,170.57
2023-01-09T17:24:37.069Z,82.13
2023-01-09T17:28:06.460Z,107.47
2023-01-09T17:31:11.446Z,69.47
2023-01-09T17:34:14.452Z,36.28
2023-01-09T17:37:18.721Z,65.60
2023-01-09T17:40:23.294Z,105.10
2023-01-09T17:43:25.907Z,71.07
2023-01-09T17:46:40.922Z,31.95
2023-01-09T17:49:43.700Z,24.33
2023-01-09T17:52:47.766Z,30.98
2023-01-09T17:55:50.372Z,27.27
2023-01-09T17:58:53.632Z,72.78
2023-01-09T18:01:56.211Z,103.57
2023-01-09T18:04:59.072Z,59.47
2023-01-09T18:08:01.805Z,62.90
2023-01-09T18:11:07.412Z,88.83
2023-01-09T18:14:13.391Z,32.15
2023-01-09T18:17:16.506Z,252.82
2023-01-09T18:20:19.360Z,156.73
2023-01-09T18:23:23.132Z,129.85
2023-01-09T18:26:25.880Z,181.13
2023-01-09T18:29:28.785Z,135.98
2023-01-09T18:32:31.773Z,45.70
2023-01-09T18:35:34.832Z,289.85
2023-01-09T18:38:37.768Z,50.33
2023-01-09T18:41:40.681Z,226.50
2023-01-09T18:44:43.329Z,303.20
2023-01-09T18:47:46.276Z,329.30
2023-01-09T18:50:49.523Z,142.48
2023-01-09T18:53:53.128Z,305.67
2023-01-09T18:56:55.795Z,267.40
2023-01-09T18:59:58.848Z,265.20
2023-01-09T19:03:01.643Z,364.85
2023-01-09T19:06:04.944Z,260.80
2023-01-09T19:09:07.610Z,174.82
2023-01-09T19:12:11.738Z,145.40
2023-01-09T19:15:14.617Z,262.40
2023-01-09T19:18:17.475Z,181.60
2023-01-09T19:21:22.341Z,181.82
2023-01-09T19:24:26.199Z,192.10
2023-01-09T19:27:30.467Z,90.63
2023-01-09T19:30:35.387Z,48.55
2023-01-09T19:33:38.043Z,28.50
2023-01-09T19:36:43.629Z,26.23
2023-01-09T19:39:46.949Z,24.70
2023-01-09T19:42:53.567Z,24.37
2023-01-09T19:45:56.800Z,27.73
2023-01-09T19:49:04.565Z,22.40
2023-01-09T19:52:08.260Z,22.55
2023-01-09T19:55:13.678Z,24.30
2023-01-09T19:58:16.238Z,21.83
2023-01-09T20:01:21.833Z,24.00
2023-01-09T20:04:26.774Z,22.17
2023-01-09T20:07:29.436Z,21.20
2023-01-09T20:10:36.881Z,23.83
2023-01-09T20:13:39.842Z,24.37
2023-01-09T20:16:43.831Z,23.95
2023-01-09T20:19:46.574Z,35.78
2023-01-09T20:22:49.453Z,35.60
2023-01-09T20:25:52.191Z,46.17
2023-01-09T20:28:55.985Z,58.03
2023-01-09T20:31:58.916Z,143.98
2023-01-09T20:35:02.456Z,96.72
2023-01-09T20:38:05.371Z,53.30
2023-01-09T20:41:11.155Z,72.30
2023-01-09T20:44:14.618Z,31.07
2023-01-09T20:47:17.582Z,24.30
2023-01-09T20:50:21.348Z,52.78
2023-01-09T20:53:24.363Z,41.17
2023-01-09T20:56:30.906Z,91.70
2023-01-09T20:59:33.849Z,25.03
2023-01-09T21:02:36.472Z,25.37
2023-01-09T21:05:40.738Z,25.25
2023-01-09T21:08:45.138Z,24.12
2023-01-09T21:11:48.193Z,22.27
2023-01-09T21:14:51.382Z,19.83
2023-01-09T21:17:55.673Z,20.90
2023-01-09T21:21:03.190Z,16.17
2023-01-09T21:24:08.167Z,17.87
2023-01-09T21:27:10.775Z,18.15
2023-01-09T21:30:14.008Z,17.40
2023-01-09T21:33:22.912Z,17.40
2023-01-09T21:36:25.881Z,18.35
2023-01-09T21:39:28.551Z,18.40
2023-01-09T21:42:50.144Z,16.62
2023-01-09T21:46:18.468Z,16.10
2023-01-09T21:49:25.731Z,18.62
2023-01-09T21:52:28.589Z,17.45
2023-01-09T21:55:34.336Z,16.75
2023-01-09T21:58:37.089Z,17.42
2023-01-09T22:01:40.106Z,20.67
2023-01-09T22:04:43.110Z,15.38
2023-01-09T22:07:45.913Z,17.98
2023-01-09T22:10:56.049Z,16.35
2023-01-09T22:14:00.718Z,18.73
2023-01-09T22:17:03.610Z,15.40
2023-01-09T22:20:07.069Z,21.05
2023-01-09T22:23:09.967Z,18.92
2023-01-09T22:26:14.460Z,20.33
2023-01-09T22:29:18.031Z,16.15
2023-01-09T22:32:22.691Z,15.40
2023-01-09T22:35:25.772Z,17.05
2023-01-09T22:38:28.472Z,16.95
2023-01-09T22:41:31.814Z,15.57
2023-01-09T22:44:34.451Z,17.08
2023-01-09T22:47:37.475Z,20.43
2023-01-09T22:50:40.103Z,21.12
2023-01-09T22:53:43.920Z,16.67
2023-01-09T22:56:46.474Z,18.23
2023-01-09T22:59:49.542Z,15.05
2023-01-09T23:02:52.397Z,14.27
2023-01-09T23:06:07.404Z,14.00
2023-01-09T23:09:10.184Z,15.55
2023-01-09T23:12:13.140Z,16.52
2023-01-09T23:15:15.694Z,15.80
2023-01-09T23:18:19.213Z,18.73
2023-01-09T23:21:21.880Z,14.57
2023-01-09T23:24:26.991Z,15.18
2023-01-09T23:27:29.770Z,15.45
2023-01-09T23:30:34.688Z,15.50
2023-01-09T23:33:37.277Z,14.23
2023-01-09T23:36:40.327Z,15.23
2023-01-09T23:39:43.258Z,15.23
2023-01-09T23:43:05.846Z,14.15
2023-01-09T23:46:08.803Z,14.15
2023-01-09T23:49:11.674Z,12.63
2023-01-09T23:52:14.680Z,14.13
2023-01-09T23:55:17.590Z,13.57
2023-01-09T23:58:20.874Z,15.18
